createdAt,value
2022-12-14T00:00:10.755Z,1000.94
2022-12-14T00:03:17.969Z,1000.88
2022-12-14T00:06:25.126Z,1000.83
2022-12-14T00:09:32.598Z,1000.83
2022-12-14T00:12:39.547Z,1000.84
2022-12-14T00:15:46.982Z,1000.80
2022-12-14T00:18:54.179Z,1000.77
2022-12-14T00:22:01.447Z,1000.82
2022-12-14T00:25:08.584Z,1000.79
2022-12-14T00:28:16.132Z,1000.84
2022-12-14T00:31:23.782Z,1000.82
2022-12-14T00:34:31.086Z,1000.80
2022-12-14T00:37:38.436Z,1000.73
2022-12-14T00:40:45.711Z,1000.63
2022-12-14T00:43:52.617Z,1000.70
2022-12-14T00:46:59.816Z,1000.67
2022-12-14T00:50:07.366Z,1000.57
2022-12-14T00:53:14.298Z,1000.59
2022-12-14T00:56:21.868Z,1000.53
2022-12-14T00:59:29.379Z,1000.50
2022-12-14T01:02:36.277Z,1000.48
2022-12-14T01:05:49.225Z,1000.50
2022-12-14T01:08:46.310Z,1000.52
2022-12-14T01:11:53.182Z,1000.47
2022-12-14T01:15:00.774Z,1000.45
2022-12-14T01:18:08.333Z,1000.51
2022-12-14T01:21:15.736Z,1000.56
2022-12-14T01:24:23.350Z,1000.49
2022-12-14T01:27:48.078Z,1000.47
2022-12-14T01:30:56.255Z,1000.45
2022-12-14T01:34:04.023Z,1000.48
2022-12-14T01:37:11.472Z,1000.41
2022-12-14T01:40:18.920Z,1000.37
2022-12-14T01:43:26.858Z,1000.33
2022-12-14T01:46:35.280Z,1000.26
2022-12-14T01:49:42.649Z,1000.27
2022-12-14T01:52:50.739Z,1000.28
2022-12-14T01:55:58.400Z,1000.24
2022-12-14T01:59:05.611Z,1000.23
2022-12-14T02:02:13.218Z,1000.14
2022-12-14T02:05:21.163Z,1000.13
2022-12-14T02:08:28.350Z,1000.08
2022-12-14T02:11:36.133Z,1000.05
2022-12-14T02:14:43.930Z,999.97
2022-12-14T02:17:51.072Z,1000.03
2022-12-14T02:20:59.069Z,1000.03
2022-12-14T02:24:06.572Z,1000.01
2022-12-14T02:27:13.671Z,999.93
2022-12-14T02:30:21.755Z,1000.00
2022-12-14T02:33:29.388Z,999.94
2022-12-14T02:36:37.538Z,999.84
2022-12-14T02:39:45.503Z,999.84
2022-12-14T02:42:52.713Z,999.75
2022-12-14T02:46:00.548Z,999.70
2022-12-14T02:49:07.975Z,999.73
2022-12-14T02:52:15.542Z,999.73
2022-12-14T02:55:23.362Z,999.66
2022-12-14T02:58:30.941Z,999.60
2022-12-14T03:01:38.950Z,999.61
2022-12-14T03:04:47.041Z,999.64
2022-12-14T03:07:54.623Z,999.62
2022-12-14T03:11:02.036Z,999.48
2022-12-14T03:14:09.449Z,999.50
2022-12-14T03:17:19.625Z,999.39
2022-12-14T03:20:27.423Z,999.41
2022-12-14T03:23:34.969Z,999.31
2022-12-14T03:26:47.210Z,999.32
2022-12-14T03:29:44.373Z,999.37
2022-12-14T03:32:51.555Z,999.28
2022-12-14T03:35:59.388Z,999.27
2022-12-14T03:39:06.525Z,999.13
2022-12-14T03:42:14.246Z,999.19
2022-12-14T03:45:22.043Z,999.08
2022-12-14T03:48:29.248Z,999.00
2022-12-14T03:51:36.934Z,999.05
2022-12-14T03:54:44.130Z,999.02
2022-12-14T03:57:51.748Z,998.86
2022-12-14T04:00:59.601Z,998.79
2022-12-14T04:04:06.786Z,998.76
2022-12-14T04:07:14.745Z,998.69
2022-12-14T04:10:22.168Z,998.68
2022-12-14T04:13:30.132Z,998.69
2022-12-14T04:16:37.811Z,998.70
2022-12-14T04:18:55.692Z,998.72
2022-12-14T04:22:00.484Z,998.67
2022-12-14T04:25:07.755Z,998.60
2022-12-14T04:28:15.347Z,998.62
2022-12-14T04:31:22.861Z,998.61
2022-12-14T04:34:30.070Z,998.51
2022-12-14T04:37:37.971Z,998.41
2022-12-14T04:40:45.342Z,998.42
2022-12-14T04:43:52.754Z,998.42
2022-12-14T04:47:00.647Z,998.41
2022-12-14T04:50:07.944Z,998.37
2022-12-14T04:53:15.417Z,998.38
2022-12-14T04:56:23.226Z,998.30
2022-12-14T04:59:30.467Z,998.23
2022-12-14T05:02:38.238Z,998.26
2022-12-14T05:05:45.647Z,998.31
2022-12-14T05:08:53.235Z,998.31
2022-12-14T05:12:00.889Z,998.28
2022-12-14T05:15:09.378Z,998.14
2022-12-14T05:18:16.935Z,998.14
2022-12-14T05:21:24.694Z,998.14
2022-12-14T05:24:32.098Z,998.16
2022-12-14T05:27:39.615Z,998.06
2022-12-14T05:30:49.240Z,998.17
2022-12-14T05:33:56.826Z,998.10
2022-12-14T05:37:04.348Z,998.11
2022-12-14T05:40:12.031Z,997.92
2022-12-14T05:43:19.934Z,997.89
2022-12-14T05:46:27.438Z,997.85
2022-12-14T05:49:34.840Z,997.84
2022-12-14T05:52:42.484Z,997.86
2022-12-14T05:55:49.974Z,997.86
2022-12-14T05:58:57.739Z,997.81
2022-12-14T06:02:05.701Z,997.79
2022-12-14T06:05:12.969Z,997.76
2022-12-14T06:08:20.929Z,997.65
2022-12-14T06:11:28.677Z,997.68
2022-12-14T06:14:35.832Z,997.63
2022-12-14T06:17:43.855Z,997.56
2022-12-14T06:20:51.346Z,997.52
2022-12-14T06:23:58.743Z,997.48
2022-12-14T06:27:06.493Z,997.39
2022-12-14T06:30:14.112Z,997.38
2022-12-14T06:33:21.725Z,997.48
2022-12-14T06:36:29.112Z,997.43
2022-12-14T06:39:36.699Z,997.35
2022-12-14T06:42:44.705Z,997.32
2022-12-14T06:45:52.305Z,997.27
2022-12-14T06:48:59.481Z,997.27
2022-12-14T06:52:06.790Z,997.23
2022-12-14T06:55:13.991Z,997.20
2022-12-14T06:58:21.589Z,997.15
2022-12-14T07:01:29.307Z,997.12
2022-12-14T07:04:36.766Z,997.12
2022-12-14T07:07:44.268Z,997.01
2022-12-14T07:10:51.287Z,997.03
2022-12-14T07:13:59.041Z,996.95
2022-12-14T07:17:06.650Z,997.03
2022-12-14T07:20:13.689Z,996.95
2022-12-14T07:23:26.295Z,996.95
2022-12-14T07:26:25.129Z,996.89
2022-12-14T07:29:34.792Z,996.95
2022-12-14T07:32:43.068Z,996.81
2022-12-14T07:35:50.575Z,996.85
2022-12-14T07:38:58.111Z,996.75
2022-12-14T07:42:05.803Z,996.79
2022-12-14T07:45:13.513Z,996.83
2022-12-14T07:48:20.929Z,996.80
2022-12-14T07:51:28.778Z,996.80
2022-12-14T07:54:36.553Z,996.74
2022-12-14T07:57:44.491Z,996.72
2022-12-14T08:00:52.002Z,996.66
2022-12-14T08:03:59.614Z,996.51
2022-12-14T08:07:07.003Z,996.57
2022-12-14T08:10:14.684Z,996.50
2022-12-14T08:13:22.273Z,996.47
2022-12-14T08:16:30.013Z,996.45
2022-12-14T08:19:37.482Z,996.45
2022-12-14T08:22:45.551Z,996.47
2022-12-14T08:25:52.871Z,996.50
2022-12-14T08:29:00.781Z,996.43
2022-12-14T08:32:08.572Z,996.47
2022-12-14T08:35:15.687Z,996.41
2022-12-14T08:38:23.486Z,996.34
2022-12-14T08:41:31.459Z,996.34
2022-12-14T08:44:38.614Z,996.28
2022-12-14T08:47:46.411Z,996.28
2022-12-14T08:50:53.977Z,996.30
2022-12-14T08:54:01.587Z,996.26
2022-12-14T08:57:09.322Z,996.30
2022-12-14T09:00:16.964Z,996.39
2022-12-14T09:03:24.500Z,996.31
2022-12-14T09:06:32.781Z,996.33
2022-12-14T09:09:40.287Z,996.37
2022-12-14T09:12:47.858Z,996.33
2022-12-14T09:15:55.285Z,996.37
2022-12-14T09:19:03.145Z,996.42
2022-12-14T09:22:10.707Z,996.36
2022-12-14T09:25:18.274Z,996.33
2022-12-14T09:28:26.370Z,996.30
2022-12-14T09:31:33.684Z,996.25
2022-12-14T09:34:41.172Z,996.27
2022-12-14T09:37:49.069Z,996.27
2022-12-14T09:40:56.113Z,996.19
2022-12-14T09:44:03.997Z,996.22
2022-12-14T09:47:12.109Z,996.24
2022-12-14T09:50:19.576Z,996.21
2022-12-14T09:53:28.024Z,996.18
2022-12-14T09:56:36.039Z,996.18
2022-12-14T09:59:43.406Z,996.06
2022-12-14T10:02:51.233Z,996.04
2022-12-14T10:05:58.476Z,996.01
2022-12-14T10:09:06.268Z,996.00
2022-12-14T10:12:14.006Z,995.98
2022-12-14T10:15:21.219Z,995.96
2022-12-14T10:21:34.293Z,995.87
2022-12-14T10:24:41.600Z,995.88
2022-12-14T10:28:09.768Z,995.96
2022-12-14T10:30:54.386Z,995.88
2022-12-14T10:34:01.981Z,995.91
2022-12-14T10:37:09.455Z,995.97
2022-12-14T10:40:27.511Z,995.89
2022-12-14T10:43:22.006Z,995.91
2022-12-14T10:46:29.639Z,995.91
2022-12-14T10:49:37.292Z,995.92
2022-12-14T10:52:45.408Z,995.92
2022-12-14T10:55:52.585Z,995.82
2022-12-14T10:59:00.361Z,995.95
2022-12-14T11:02:08.268Z,995.78
2022-12-14T11:05:15.890Z,995.80
2022-12-14T11:08:23.744Z,995.75
2022-12-14T11:11:30.973Z,995.66
2022-12-14T11:14:38.793Z,995.69
2022-12-14T11:17:46.869Z,995.59
2022-12-14T11:20:53.938Z,995.61
2022-12-14T11:24:01.764Z,995.55
2022-12-14T11:27:09.986Z,995.50
2022-12-14T11:30:17.043Z,995.49
2022-12-14T11:33:24.548Z,995.49
2022-12-14T11:36:31.792Z,995.43
2022-12-14T11:39:39.049Z,995.49
2022-12-14T11:42:46.302Z,995.50
2022-12-14T11:45:53.676Z,995.43
2022-12-14T11:49:01.541Z,995.38
2022-12-14T11:52:09.069Z,995.44
2022-12-14T11:55:20.282Z,995.36
2022-12-14T11:58:19.928Z,995.36
2022-12-14T12:01:27.513Z,995.39
2022-12-14T12:04:35.399Z,995.36
2022-12-14T12:07:42.797Z,995.39
2022-12-14T12:10:50.767Z,995.30
2022-12-14T12:13:58.727Z,995.32
2022-12-14T12:17:06.429Z,995.28
2022-12-14T12:20:13.934Z,995.21
2022-12-14T12:23:21.608Z,995.14
2022-12-14T12:26:28.681Z,995.08
2022-12-14T12:29:36.367Z,994.96
2022-12-14T12:32:44.152Z,994.95
2022-12-14T12:35:46.323Z,994.95
2022-12-14T12:38:53.970Z,994.96
2022-12-14T12:42:05.212Z,995.02
2022-12-14T12:45:02.609Z,995.08
2022-12-14T12:48:09.993Z,995.07
2022-12-14T12:51:17.449Z,995.16
2022-12-14T12:54:25.160Z,995.09
2022-12-14T12:57:32.402Z,995.10
2022-12-14T13:00:39.870Z,995.10
2022-12-14T13:03:47.675Z,995.08
2022-12-14T13:06:54.687Z,995.07
2022-12-14T13:10:05.960Z,995.01
2022-12-14T13:13:03.007Z,995.00
2022-12-14T13:16:09.978Z,994.97
2022-12-14T13:19:48.919Z,994.99
2022-12-14T13:22:22.686Z,995.03
2022-12-14T13:25:30.445Z,994.96
2022-12-14T13:28:38.034Z,994.92
2022-12-14T13:31:45.304Z,994.94
2022-12-14T13:34:52.731Z,994.92
2022-12-14T13:38:00.385Z,994.94
2022-12-14T13:41:07.828Z,994.95
2022-12-14T13:44:15.375Z,994.93
2022-12-14T13:47:22.923Z,994.86
2022-12-14T13:50:41.030Z,994.85
2022-12-14T13:53:35.377Z,994.86
2022-12-14T13:56:42.856Z,994.88
2022-12-14T13:59:50.733Z,994.82
2022-12-14T14:02:58.191Z,994.82
2022-12-14T14:06:05.501Z,994.85
2022-12-14T14:09:13.421Z,994.85
2022-12-14T14:12:20.675Z,994.85
2022-12-14T14:15:28.493Z,994.90
2022-12-14T14:18:36.368Z,994.83
2022-12-14T14:22:06.035Z,994.86
2022-12-14T14:24:48.686Z,994.75
2022-12-14T14:27:56.702Z,994.75
2022-12-14T14:31:04.061Z,994.83
2022-12-14T14:34:11.524Z,994.89
2022-12-14T14:37:18.890Z,994.94
2022-12-14T14:40:50.928Z,994.96
2022-12-14T14:43:31.380Z,994.98
2022-12-14T14:46:39.025Z,994.98
2022-12-14T14:49:46.764Z,995.04
2022-12-14T14:52:54.063Z,995.11
2022-12-14T14:56:02.058Z,995.12
2022-12-14T14:59:09.375Z,995.14
2022-12-14T15:02:16.807Z,995.15
2022-12-14T15:08:29.973Z,995.20
2022-12-14T15:11:37.720Z,995.16
2022-12-14T15:14:48.770Z,995.18
2022-12-14T15:17:45.475Z,995.18
2022-12-14T15:20:53.638Z,995.22
2022-12-14T15:24:01.531Z,995.27
2022-12-14T15:27:08.525Z,995.21
2022-12-14T15:30:15.816Z,995.25
2022-12-14T15:33:23.124Z,995.37
2022-12-14T15:36:30.795Z,995.43
2022-12-14T15:39:38.714Z,995.35
2022-12-14T15:42:46.272Z,995.30
2022-12-14T15:45:54.112Z,995.28
2022-12-14T15:49:02.055Z,995.29
2022-12-14T15:52:09.341Z,995.29
2022-12-14T15:55:16.889Z,995.22
2022-12-14T15:58:24.259Z,995.18
2022-12-14T16:01:32.308Z,995.25
2022-12-14T16:04:39.813Z,995.21
2022-12-14T16:07:47.366Z,995.30
2022-12-14T16:10:55.349Z,995.23
2022-12-14T16:14:02.902Z,995.26
2022-12-14T16:17:10.389Z,995.29
2022-12-14T16:20:18.146Z,995.40
2022-12-14T16:23:25.403Z,995.43
2022-12-14T16:26:33.238Z,995.42
2022-12-14T16:29:48.080Z,995.43
2022-12-14T16:32:48.013Z,995.46
2022-12-14T16:35:47.516Z,995.44
2022-12-14T16:38:55.141Z,995.46
2022-12-14T16:42:02.822Z,995.46
2022-12-14T16:45:10.644Z,995.46
2022-12-14T16:48:18.142Z,995.52
2022-12-14T16:51:50.963Z,995.52
2022-12-14T16:54:30.897Z,995.47
2022-12-14T16:57:38.310Z,995.50
2022-12-14T17:00:45.509Z,995.58
2022-12-14T17:03:53.065Z,995.52
2022-12-14T17:07:00.742Z,995.45
2022-12-14T17:10:08.247Z,995.29
2022-12-14T17:13:15.646Z,995.33
2022-12-14T17:16:23.643Z,995.43
2022-12-14T17:19:31.038Z,995.45
2022-12-14T17:22:38.546Z,995.41
2022-12-14T17:25:48.136Z,995.41
2022-12-14T17:28:55.340Z,995.42
2022-12-14T17:32:03.120Z,995.45
2022-12-14T17:35:11.268Z,995.52
2022-12-14T17:38:18.478Z,995.48
2022-12-14T17:41:26.524Z,995.53
2022-12-14T17:44:34.444Z,995.69
2022-12-14T17:47:41.544Z,995.67
2022-12-14T17:50:49.178Z,995.75
2022-12-14T17:53:56.719Z,995.71
2022-12-14T17:57:04.207Z,995.72
2022-12-14T18:00:12.038Z,995.76
2022-12-14T18:03:19.664Z,995.80
2022-12-14T18:06:27.160Z,995.82
2022-12-14T18:09:35.199Z,995.79
2022-12-14T18:12:42.747Z,995.77
2022-12-14T18:15:50.708Z,995.74
2022-12-14T18:18:58.007Z,995.80
2022-12-14T18:22:05.641Z,995.80
2022-12-14T18:25:12.889Z,995.69
2022-12-14T18:28:21.280Z,995.70
2022-12-14T18:31:29.043Z,995.64
2022-12-14T18:34:36.331Z,995.65
2022-12-14T18:37:43.590Z,995.76
2022-12-14T18:40:47.723Z,995.88
2022-12-14T18:43:46.198Z,995.84
2022-12-14T18:46:53.768Z,995.85
2022-12-14T18:50:01.369Z,995.90
2022-12-14T18:53:08.558Z,995.87
2022-12-14T18:56:15.992Z,995.90
2022-12-14T18:59:23.419Z,995.83
2022-12-14T19:02:31.826Z,995.94
2022-12-14T19:05:39.438Z,996.07
2022-12-14T19:08:46.685Z,996.09
2022-12-14T19:11:56.853Z,996.18
2022-12-14T19:15:04.299Z,996.21
2022-12-14T19:18:11.853Z,996.17
2022-12-14T19:21:19.703Z,996.13
2022-12-14T19:24:27.487Z,996.06
2022-12-14T19:28:15.108Z,996.06
2022-12-14T19:30:39.573Z,996.01
2022-12-14T19:33:47.173Z,996.00
2022-12-14T19:36:54.955Z,996.08
2022-12-14T19:40:02.508Z,996.05
2022-12-14T19:43:10.101Z,996.13
2022-12-14T19:46:17.727Z,996.09
2022-12-14T19:49:24.934Z,996.12
2022-12-14T19:52:32.981Z,996.13
2022-12-14T19:55:40.711Z,996.15
2022-12-14T19:58:47.763Z,996.24
2022-12-14T20:01:55.862Z,996.17
2022-12-14T20:05:03.602Z,996.20
2022-12-14T20:08:10.617Z,996.23
2022-12-14T20:11:18.231Z,996.15
2022-12-14T20:14:26.244Z,996.19
2022-12-14T20:17:33.589Z,996.20
2022-12-14T20:20:41.035Z,996.22
2022-12-14T20:23:48.544Z,996.18
2022-12-14T20:26:56.447Z,996.20
2022-12-14T20:30:05.105Z,996.11
2022-12-14T20:33:12.801Z,996.26
2022-12-14T20:36:20.950Z,996.28
2022-12-14T20:39:31.221Z,996.30
2022-12-14T20:42:38.985Z,996.29
2022-12-14T20:45:46.747Z,996.31
2022-12-14T20:48:54.435Z,996.35
2022-12-14T20:52:02.174Z,996.39
2022-12-14T20:55:09.874Z,996.35
2022-12-14T20:58:17.520Z,996.36
2022-12-14T21:01:25.513Z,996.36
2022-12-14T21:04:33.208Z,996.41
2022-12-14T21:07:40.687Z,996.42
2022-12-14T21:10:48.189Z,996.47
2022-12-14T21:13:55.347Z,996.54
2022-12-14T21:17:04.107Z,996.56
2022-12-14T21:20:11.786Z,996.61
2022-12-14T21:23:18.876Z,996.63
2022-12-14T21:26:26.897Z,996.68
2022-12-14T21:29:35.127Z,996.68
2022-12-14T21:32:42.274Z,996.69
2022-12-14T21:35:49.919Z,996.87
2022-12-14T21:38:57.425Z,996.89
2022-12-14T21:42:04.595Z,996.87
2022-12-14T21:45:12.433Z,996.97
2022-12-14T21:48:19.929Z,996.95
2022-12-14T21:51:27.753Z,996.94
2022-12-14T21:54:35.553Z,996.96
2022-12-14T21:57:49.421Z,997.01
2022-12-14T22:00:46.956Z,997.01
2022-12-14T22:03:54.535Z,997.01
2022-12-14T22:07:02.160Z,997.05
2022-12-14T22:10:09.425Z,997.00
2022-12-14T22:13:17.529Z,997.02
2022-12-14T22:16:25.120Z,997.08
2022-12-14T22:19:32.310Z,997.07
2022-12-14T22:22:39.936Z,997.00
2022-12-14T22:25:47.451Z,997.01
2022-12-14T22:28:54.801Z,997.00
2022-12-14T22:32:02.723Z,997.00
2022-12-14T22:35:10.196Z,997.03
2022-12-14T22:38:17.523Z,996.95
2022-12-14T22:41:25.439Z,996.92
2022-12-14T22:44:32.817Z,996.91
2022-12-14T22:47:40.706Z,996.96
2022-12-14T22:50:48.628Z,997.09
2022-12-14T22:53:55.698Z,997.00
2022-12-14T22:57:03.495Z,996.97
2022-12-14T23:00:11.895Z,996.95
2022-12-14T23:03:19.188Z,996.95
2022-12-14T23:06:27.346Z,996.99
2022-12-14T23:09:35.135Z,996.96
2022-12-14T23:12:42.364Z,996.95
2022-12-14T23:15:50.411Z,996.98
2022-12-14T23:18:57.725Z,997.04
2022-12-14T23:22:05.026Z,997.02
2022-12-14T23:25:12.522Z,997.03
2022-12-14T23:28:19.970Z,997.04
2022-12-14T23:31:28.040Z,997.01
2022-12-14T23:34:35.349Z,997.07
2022-12-14T23:37:43.284Z,997.01
2022-12-14T23:40:51.345Z,997.08
2022-12-14T23:43:58.562Z,997.09
2022-12-14T23:47:06.379Z,997.06
2022-12-14T23:50:14.290Z,997.07
2022-12-14T23:53:21.633Z,997.13
2022-12-14T23:56:29.560Z,997.16
2022-12-14T23:59:37.222Z,997.19
